sensor_id;sensor_type;location;lat;lon;timestamp;P1;durP1;ratioP1;P2;durP2;ratioP2
41141;SDS011;63666;52.284;20.890;2024-01-16T00:01:25;2.30;;;0.90;;
41141;SDS011;63666;52.284;20.890;2024-01-16T00:03:09;3.10;;;1.00;;
41141;SDS011;63666;52.284;20.890;2024-01-16T00:04:55;2.40;;;0.90;;
41141;SDS011;63666;52.284;20.890;2024-01-16T00:06:41;2.70;;;1.00;;
41141;SDS011;63666;52.284;20.890;2024-01-16T00:08:29;3.10;;;0.90;;
41141;SDS011;63666;52.284;20.890;2024-01-16T00:10:15;2.60;;;0.80;;
41141;SDS011;63666;52.284;20.890;2024-01-16T00:12:04;3.10;;;1.00;;
41141;SDS011;63666;52.284;20.890;2024-01-16T00:13:54;2.30;;;0.80;;
41141;SDS011;63666;52.284;20.890;2024-01-16T00:15:45;2.20;;;0.90;;
41141;SDS011;63666;52.284;20.890;2024-01-16T00:17:31;2.50;;;0.90;;
41141;SDS011;63666;52.284;20.890;2024-01-16T00:19:17;3.20;;;1.00;;
41141;SDS011;63666;52.284;20.890;2024-01-16T00:21:03;2.40;;;0.80;;
41141;SDS011;63666;52.284;20.890;2024-01-16T00:22:49;3.00;;;0.90;;
41141;SDS011;63666;52.284;20.890;2024-01-16T00:24:34;3.80;;;0.90;;
41141;SDS011;63666;52.284;20.890;2024-01-16T00:26:22;2.60;;;0.80;;
41141;SDS011;63666;52.284;20.890;2024-01-16T00:28:08;2.90;;;0.90;;
41141;SDS011;63666;52.284;20.890;2024-01-16T00:29:54;2.40;;;0.80;;
41141;SDS011;63666;52.284;20.890;2024-01-16T00:31:39;2.80;;;0.90;;
41141;SDS011;63666;52.284;20.890;2024-01-16T00:33:27;2.30;;;0.90;;
41141;SDS011;63666;52.284;20.890;2024-01-16T00:35:15;1.80;;;0.80;;
41141;SDS011;63666;52.284;20.890;2024-01-16T00:37:01;2.30;;;0.90;;
41141;SDS011;63666;52.284;20.890;2024-01-16T00:38:46;2.60;;;0.80;;
41141;SDS011;63666;52.284;20.890;2024-01-16T00:40:32;2.30;;;0.80;;
41141;SDS011;63666;52.284;20.890;2024-01-16T00:42:16;2.30;;;0.80;;
41141;SDS011;63666;52.284;20.890;2024-01-16T00:44:02;2.40;;;0.80;;
41141;SDS011;63666;52.284;20.890;2024-01-16T00:45:48;2.30;;;1.00;;
41141;SDS011;63666;52.284;20.890;2024-01-16T00:47:33;3.20;;;1.00;;
41141;SDS011;63666;52.284;20.890;2024-01-16T00:49:22;1.70;;;0.60;;
41141;SDS011;63666;52.284;20.890;2024-01-16T00:51:07;3.30;;;1.00;;
41141;SDS011;63666;52.284;20.890;2024-01-16T00:52:51;2.70;;;0.80;;
41141;SDS011;63666;52.284;20.890;2024-01-16T00:54:38;2.20;;;0.80;;
41141;SDS011;63666;52.284;20.890;2024-01-16T00:56:23;2.20;;;0.80;;
41141;SDS011;63666;52.284;20.890;2024-01-16T00:58:09;2.30;;;0.80;;
41141;SDS011;63666;52.284;20.890;2024-01-16T00:59:54;3.70;;;0.90;;
41141;SDS011;63666;52.284;20.890;2024-01-16T01:01:40;2.30;;;0.80;;
41141;SDS011;63666;52.284;20.890;2024-01-16T01:03:26;2.80;;;0.90;;
41141;SDS011;63666;52.284;20.890;2024-01-16T01:05:14;2.10;;;0.80;;
41141;SDS011;63666;52.284;20.890;2024-01-16T01:06:59;2.70;;;0.80;;
41141;SDS011;63666;52.284;20.890;2024-01-16T01:08:46;2.60;;;0.80;;
41141;SDS011;63666;52.284;20.890;2024-01-16T01:10:31;2.60;;;0.80;;
41141;SDS011;63666;52.284;20.890;2024-01-16T01:12:16;2.30;;;0.70;;
41141;SDS011;63666;52.284;20.890;2024-01-16T01:14:04;2.60;;;0.90;;
41141;SDS011;63666;52.284;20.890;2024-01-16T01:15:50;2.50;;;0.90;;
41141;SDS011;63666;52.284;20.890;2024-01-16T01:17:39;2.20;;;0.70;;
41141;SDS011;63666;52.284;20.890;2024-01-16T01:19:24;2.50;;;0.80;;
41141;SDS011;63666;52.284;20.890;2024-01-16T01:21:12;2.60;;;0.90;;
41141;SDS011;63666;52.284;20.890;2024-01-16T01:22:57;2.70;;;0.90;;
41141;SDS011;63666;52.284;20.890;2024-01-16T01:24:44;3.00;;;1.00;;
41141;SDS011;63666;52.284;20.890;2024-01-16T01:26:29;2.60;;;0.90;;
41141;SDS011;63666;52.284;20.890;2024-01-16T01:28:15;2.80;;;0.90;;
41141;SDS011;63666;52.284;20.890;2024-01-16T01:30:03;2.30;;;0.80;;
41141;SDS011;63666;52.284;20.890;2024-01-16T01:31:57;2.30;;;0.80;;
41141;SDS011;63666;52.284;20.890;2024-01-16T01:33:42;2.50;;;0.90;;
41141;SDS011;63666;52.284;20.890;2024-01-16T01:35:27;2.40;;;0.80;;
41141;SDS011;63666;52.284;20.890;2024-01-16T01:37:12;2.50;;;0.90;;
41141;SDS011;63666;52.284;20.890;2024-01-16T01:38:57;2.10;;;0.80;;
41141;SDS011;63666;52.284;20.890;2024-01-16T01:40:46;2.70;;;0.80;;
41141;SDS011;63666;52.284;20.890;2024-01-16T01:42:33;2.00;;;0.70;;
41141;SDS011;63666;52.284;20.890;2024-01-16T01:44:18;2.40;;;0.80;;
41141;SDS011;63666;52.284;20.890;2024-01-16T01:46:14;3.00;;;1.00;;
41141;SDS011;63666;52.284;20.890;2024-01-16T01:48:01;2.40;;;0.80;;
41141;SDS011;63666;52.284;20.890;2024-01-16T01:49:49;2.40;;;0.80;;
41141;SDS011;63666;52.284;20.890;2024-01-16T01:51:35;2.10;;;0.70;;
41141;SDS011;63666;52.284;20.890;2024-01-16T01:53:21;2.40;;;0.80;;
41141;SDS011;63666;52.284;20.890;2024-01-16T01:55:10;2.40;;;0.80;;
41141;SDS011;63666;52.284;20.890;2024-01-16T01:57:00;2.00;;;0.80;;
41141;SDS011;63666;52.284;20.890;2024-01-16T01:58:47;2.30;;;0.80;;
41141;SDS011;63666;52.284;20.890;2024-01-16T02:00:38;2.20;;;0.90;;
41141;SDS011;63666;52.284;20.890;2024-01-16T02:02:26;2.30;;;0.90;;
41141;SDS011;63666;52.284;20.890;2024-01-16T02:04:12;2.20;;;0.90;;
41141;SDS011;63666;52.284;20.890;2024-01-16T02:06:00;2.80;;;0.80;;
41141;SDS011;63666;52.284;20.890;2024-01-16T02:07:46;2.40;;;0.80;;
41141;SDS011;63666;52.284;20.890;2024-01-16T02:09:31;2.50;;;0.90;;
41141;SDS011;63666;52.284;20.890;2024-01-16T02:11:16;2.00;;;0.80;;
41141;SDS011;63666;52.284;20.890;2024-01-16T02:13:02;2.50;;;0.90;;
41141;SDS011;63666;52.284;20.890;2024-01-16T02:14:49;2.50;;;0.70;;
41141;SDS011;63666;52.284;20.890;2024-01-16T02:16:39;2.10;;;0.70;;
41141;SDS011;63666;52.284;20.890;2024-01-16T02:18:26;2.40;;;0.80;;
41141;SDS011;63666;52.284;20.890;2024-01-16T02:20:15;1.90;;;0.60;;
41141;SDS011;63666;52.284;20.890;2024-01-16T02:22:01;2.10;;;0.60;;
41141;SDS011;63666;52.284;20.890;2024-01-16T02:23:47;1.90;;;0.80;;
41141;SDS011;63666;52.284;20.890;2024-01-16T02:25:32;2.00;;;0.70;;
41141;SDS011;63666;52.284;20.890;2024-01-16T02:27:19;2.10;;;0.70;;
41141;SDS011;63666;52.284;20.890;2024-01-16T02:29:06;2.70;;;1.00;;
41141;SDS011;63666;52.284;20.890;2024-01-16T02:30:56;2.20;;;0.80;;
41141;SDS011;63666;52.284;20.890;2024-01-16T02:32:45;2.00;;;0.80;;
41141;SDS011;63666;52.284;20.890;2024-01-16T02:34:30;2.10;;;0.80;;
41141;SDS011;63666;52.284;20.890;2024-01-16T02:36:17;2.10;;;0.70;;
41141;SDS011;63666;52.284;20.890;2024-01-16T02:38:03;1.80;;;0.70;;
41141;SDS011;63666;52.284;20.890;2024-01-16T02:39:52;2.40;;;0.70;;
41141;SDS011;63666;52.284;20.890;2024-01-16T02:41:36;2.10;;;0.70;;
41141;SDS011;63666;52.284;20.890;2024-01-16T02:43:26;1.50;;;0.70;;
41141;SDS011;63666;52.284;20.890;2024-01-16T02:45:13;1.80;;;0.70;;
41141;SDS011;63666;52.284;20.890;2024-01-16T02:47:03;2.40;;;0.60;;
41141;SDS011;63666;52.284;20.890;2024-01-16T02:48:49;2.30;;;0.80;;
41141;SDS011;63666;52.284;20.890;2024-01-16T02:50:34;2.40;;;0.80;;
41141;SDS011;63666;52.284;20.890;2024-01-16T02:52:20;1.80;;;0.60;;
41141;SDS011;63666;52.284;20.890;2024-01-16T02:54:07;2.30;;;0.70;;
41141;SDS011;63666;52.284;20.890;2024-01-16T02:55:54;2.00;;;0.70;;
41141;SDS011;63666;52.284;20.890;2024-01-16T02:57:40;2.00;;;0.70;;
41141;SDS011;63666;52.284;20.890;2024-01-16T02:59:25;2.10;;;0.80;;
41141;SDS011;63666;52.284;20.890;2024-01-16T03:01:15;2.40;;;0.80;;
41141;SDS011;63666;52.284;20.890;2024-01-16T03:03:00;2.10;;;0.70;;
41141;SDS011;63666;52.284;20.890;2024-01-16T03:04:47;1.90;;;0.80;;
41141;SDS011;63666;52.284;20.890;2024-01-16T03:06:35;2.00;;;0.60;;
41141;SDS011;63666;52.284;20.890;2024-01-16T03:08:20;2.10;;;0.70;;
41141;SDS011;63666;52.284;20.890;2024-01-16T03:10:11;2.00;;;0.80;;
41141;SDS011;63666;52.284;20.890;2024-01-16T03:11:56;1.70;;;0.60;;
41141;SDS011;63666;52.284;20.890;2024-01-16T03:13:43;1.90;;;0.70;;
41141;SDS011;63666;52.284;20.890;2024-01-16T03:15:33;2.20;;;0.70;;
41141;SDS011;63666;52.284;20.890;2024-01-16T03:17:18;1.70;;;0.70;;
41141;SDS011;63666;52.284;20.890;2024-01-16T03:19:04;1.80;;;0.60;;
41141;SDS011;63666;52.284;20.890;2024-01-16T03:20:56;2.20;;;0.70;;
41141;SDS011;63666;52.284;20.890;2024-01-16T03:22:42;2.70;;;0.80;;
41141;SDS011;63666;52.284;20.890;2024-01-16T03:24:27;2.00;;;0.70;;
41141;SDS011;63666;52.284;20.890;2024-01-16T03:26:16;2.30;;;0.70;;
41141;SDS011;63666;52.284;20.890;2024-01-16T03:28:01;2.30;;;0.80;;
41141;SDS011;63666;52.284;20.890;2024-01-16T03:29:51;2.00;;;0.60;;
41141;SDS011;63666;52.284;20.890;2024-01-16T03:31:41;1.80;;;0.60;;
41141;SDS011;63666;52.284;20.890;2024-01-16T03:33:26;2.40;;;0.80;;
41141;SDS011;63666;52.284;20.890;2024-01-16T03:35:12;1.70;;;0.60;;
41141;SDS011;63666;52.284;20.890;2024-01-16T03:36:57;1.60;;;0.60;;
41141;SDS011;63666;52.284;20.890;2024-01-16T03:38:43;1.40;;;0.50;;
41141;SDS011;63666;52.284;20.890;2024-01-16T03:40:28;1.70;;;0.80;;
41141;SDS011;63666;52.284;20.890;2024-01-16T03:42:18;2.00;;;0.60;;
41141;SDS011;63666;52.284;20.890;2024-01-16T03:44:03;2.30;;;0.60;;
41141;SDS011;63666;52.284;20.890;2024-01-16T03:45:49;1.90;;;0.70;;
41141;SDS011;63666;52.284;20.890;2024-01-16T03:47:33;1.90;;;0.60;;
41141;SDS011;63666;52.284;20.890;2024-01-16T03:49:18;1.90;;;0.70;;
41141;SDS011;63666;52.284;20.890;2024-01-16T03:51:03;2.10;;;0.60;;
41141;SDS011;63666;52.284;20.890;2024-01-16T03:52:52;1.60;;;0.50;;
41141;SDS011;63666;52.284;20.890;2024-01-16T03:54:37;1.80;;;0.60;;
41141;SDS011;63666;52.284;20.890;2024-01-16T03:56:23;2.50;;;0.80;;
41141;SDS011;63666;52.284;20.890;2024-01-16T03:58:07;2.70;;;0.80;;
41141;SDS011;63666;52.284;20.890;2024-01-16T03:59:54;2.90;;;0.80;;
41141;SDS011;63666;52.284;20.890;2024-01-16T04:01:42;1.80;;;0.60;;
41141;SDS011;63666;52.284;20.890;2024-01-16T04:03:27;2.20;;;0.60;;
41141;SDS011;63666;52.284;20.890;2024-01-16T04:05:15;2.00;;;0.60;;
41141;SDS011;63666;52.284;20.890;2024-01-16T04:07:01;2.50;;;0.70;;
41141;SDS011;63666;52.284;20.890;2024-01-16T04:08:47;1.80;;;0.60;;
41141;SDS011;63666;52.284;20.890;2024-01-16T04:10:33;2.50;;;0.70;;
41141;SDS011;63666;52.284;20.890;2024-01-16T04:12:19;2.50;;;0.70;;
41141;SDS011;63666;52.284;20.890;2024-01-16T04:14:27;1.50;;;0.60;;
41141;SDS011;63666;52.284;20.890;2024-01-16T04:16:13;1.90;;;0.70;;
41141;SDS011;63666;52.284;20.890;2024-01-16T04:17:57;1.90;;;0.70;;
41141;SDS011;63666;52.284;20.890;2024-01-16T04:19:42;2.40;;;0.80;;
41141;SDS011;63666;52.284;20.890;2024-01-16T04:21:27;1.90;;;0.70;;
41141;SDS011;63666;52.284;20.890;2024-01-16T04:23:14;1.60;;;0.60;;
41141;SDS011;63666;52.284;20.890;2024-01-16T04:25:03;2.00;;;0.60;;
41141;SDS011;63666;52.284;20.890;2024-01-16T04:26:48;2.00;;;0.80;;
41141;SDS011;63666;52.284;20.890;2024-01-16T04:28:34;2.10;;;0.70;;
41141;SDS011;63666;52.284;20.890;2024-01-16T04:30:20;2.00;;;0.70;;
41141;SDS011;63666;52.284;20.890;2024-01-16T04:32:07;2.70;;;0.70;;
41141;SDS011;63666;52.284;20.890;2024-01-16T04:33:52;2.80;;;0.70;;
41141;SDS011;63666;52.284;20.890;2024-01-16T04:35:40;2.70;;;0.80;;
41141;SDS011;63666;52.284;20.890;2024-01-16T04:37:27;2.40;;;0.70;;
41141;SDS011;63666;52.284;20.890;2024-01-16T04:39:12;2.40;;;0.60;;
41141;SDS011;63666;52.284;20.890;2024-01-16T04:40:57;2.60;;;0.70;;
41141;SDS011;63666;52.284;20.890;2024-01-16T04:42:44;1.90;;;0.70;;
41141;SDS011;63666;52.284;20.890;2024-01-16T04:44:28;2.20;;;0.70;;
41141;SDS011;63666;52.284;20.890;2024-01-16T04:46:16;3.90;;;0.70;;
41141;SDS011;63666;52.284;20.890;2024-01-16T04:48:04;2.90;;;0.90;;
41141;SDS011;63666;52.284;20.890;2024-01-16T04:49:50;1.90;;;0.60;;
41141;SDS011;63666;52.284;20.890;2024-01-16T04:51:35;1.80;;;0.70;;
41141;SDS011;63666;52.284;20.890;2024-01-16T04:53:22;2.70;;;0.80;;
41141;SDS011;63666;52.284;20.890;2024-01-16T04:55:08;3.40;;;0.90;;
41141;SDS011;63666;52.284;20.890;2024-01-16T04:56:54;2.80;;;0.90;;
41141;SDS011;63666;52.284;20.890;2024-01-16T04:58:40;2.10;;;0.70;;
41141;SDS011;63666;52.284;20.890;2024-01-16T05:00:26;2.50;;;0.90;;
41141;SDS011;63666;52.284;20.890;2024-01-16T05:02:15;2.60;;;0.70;;
41141;SDS011;63666;52.284;20.890;2024-01-16T05:04:04;3.00;;;0.80;;
41141;SDS011;63666;52.284;20.890;2024-01-16T05:05:52;3.10;;;0.70;;
41141;SDS011;63666;52.284;20.890;2024-01-16T05:07:37;3.20;;;0.90;;
41141;SDS011;63666;52.284;20.890;2024-01-16T05:09:25;2.90;;;0.80;;
41141;SDS011;63666;52.284;20.890;2024-01-16T05:11:10;3.30;;;0.80;;
41141;SDS011;63666;52.284;20.890;2024-01-16T05:12:55;2.90;;;0.90;;
41141;SDS011;63666;52.284;20.890;2024-01-16T05:14:42;2.10;;;0.70;;
41141;SDS011;63666;52.284;20.890;2024-01-16T05:16:31;2.90;;;0.80;;
41141;SDS011;63666;52.284;20.890;2024-01-16T05:18:16;2.80;;;0.80;;
41141;SDS011;63666;52.284;20.890;2024-01-16T05:20:03;2.40;;;0.80;;
41141;SDS011;63666;52.284;20.890;2024-01-16T05:21:52;2.60;;;0.80;;
41141;SDS011;63666;52.284;20.890;2024-01-16T05:23:37;2.40;;;0.70;;
41141;SDS011;63666;52.284;20.890;2024-01-16T05:25:24;2.10;;;0.70;;
41141;SDS011;63666;52.284;20.890;2024-01-16T05:27:16;2.70;;;0.90;;
41141;SDS011;63666;52.284;20.890;2024-01-16T05:29:01;3.10;;;0.80;;
41141;SDS011;63666;52.284;20.890;2024-01-16T05:30:47;2.30;;;0.80;;
41141;SDS011;63666;52.284;20.890;2024-01-16T05:32:33;2.40;;;0.70;;
41141;SDS011;63666;52.284;20.890;2024-01-16T05:34:18;2.20;;;0.70;;
41141;SDS011;63666;52.284;20.890;2024-01-16T05:36:06;2.80;;;0.90;;
41141;SDS011;63666;52.284;20.890;2024-01-16T05:37:52;2.20;;;0.60;;
41141;SDS011;63666;52.284;20.890;2024-01-16T05:39:37;2.40;;;0.70;;
41141;SDS011;63666;52.284;20.890;2024-01-16T05:41:33;3.30;;;0.90;;
41141;SDS011;63666;52.284;20.890;2024-01-16T05:43:19;2.10;;;0.70;;
41141;SDS011;63666;52.284;20.890;2024-01-16T05:45:05;2.60;;;0.90;;
41141;SDS011;63666;52.284;20.890;2024-01-16T05:46:52;2.50;;;0.80;;
41141;SDS011;63666;52.284;20.890;2024-01-16T05:48:37;1.90;;;0.70;;
41141;SDS011;63666;52.284;20.890;2024-01-16T05:50:23;2.90;;;0.80;;
41141;SDS011;63666;52.284;20.890;2024-01-16T05:52:10;2.40;;;0.80;;
41141;SDS011;63666;52.284;20.890;2024-01-16T05:53:54;2.40;;;0.70;;
41141;SDS011;63666;52.284;20.890;2024-01-16T05:55:39;2.80;;;0.90;;
41141;SDS011;63666;52.284;20.890;2024-01-16T05:57:26;2.90;;;0.90;;
41141;SDS011;63666;52.284;20.890;2024-01-16T05:59:14;2.60;;;0.90;;
41141;SDS011;63666;52.284;20.890;2024-01-16T06:01:00;2.90;;;0.90;;
41141;SDS011;63666;52.284;20.890;2024-01-16T06:02:45;2.50;;;0.80;;
41141;SDS011;63666;52.284;20.890;2024-01-16T06:04:32;2.70;;;0.80;;
41141;SDS011;63666;52.284;20.890;2024-01-16T06:06:18;2.70;;;0.90;;
41141;SDS011;63666;52.284;20.890;2024-01-16T06:08:03;3.20;;;0.70;;
41141;SDS011;63666;52.284;20.890;2024-01-16T06:09:50;2.50;;;0.80;;
41141;SDS011;63666;52.284;20.890;2024-01-16T06:11:36;2.90;;;0.80;;
41141;SDS011;63666;52.284;20.890;2024-01-16T06:13:29;2.90;;;0.90;;
41141;SDS011;63666;52.284;20.890;2024-01-16T06:15:15;3.10;;;1.00;;
41141;SDS011;63666;52.284;20.890;2024-01-16T06:17:00;3.10;;;0.90;;
41141;SDS011;63666;52.284;20.890;2024-01-16T06:18:48;3.10;;;1.00;;
41141;SDS011;63666;52.284;20.890;2024-01-16T06:20:33;2.90;;;0.90;;
41141;SDS011;63666;52.284;20.890;2024-01-16T06:22:20;3.50;;;1.10;;
41141;SDS011;63666;52.284;20.890;2024-01-16T06:24:06;3.00;;;1.10;;
41141;SDS011;63666;52.284;20.890;2024-01-16T06:25:56;3.80;;;1.10;;
41141;SDS011;63666;52.284;20.890;2024-01-16T06:27:42;4.00;;;1.20;;
41141;SDS011;63666;52.284;20.890;2024-01-16T06:29:27;2.90;;;1.00;;
41141;SDS011;63666;52.284;20.890;2024-01-16T06:31:17;3.30;;;1.00;;
41141;SDS011;63666;52.284;20.890;2024-01-16T06:33:04;3.10;;;1.00;;
41141;SDS011;63666;52.284;20.890;2024-01-16T06:34:49;3.30;;;1.10;;
41141;SDS011;63666;52.284;20.890;2024-01-16T06:36:35;2.80;;;1.00;;
41141;SDS011;63666;52.284;20.890;2024-01-16T06:38:24;3.60;;;1.00;;
41141;SDS011;63666;52.284;20.890;2024-01-16T06:40:11;3.50;;;1.10;;
41141;SDS011;63666;52.284;20.890;2024-01-16T06:41:56;3.00;;;1.00;;
41141;SDS011;63666;52.284;20.890;2024-01-16T06:43:41;2.90;;;1.00;;
41141;SDS011;63666;52.284;20.890;2024-01-16T06:45:26;2.70;;;1.00;;
41141;SDS011;63666;52.284;20.890;2024-01-16T06:47:15;3.50;;;1.10;;
41141;SDS011;63666;52.284;20.890;2024-01-16T06:49:02;3.60;;;1.10;;
41141;SDS011;63666;52.284;20.890;2024-01-16T06:50:49;3.10;;;0.90;;
41141;SDS011;63666;52.284;20.890;2024-01-16T06:52:34;3.00;;;0.90;;
41141;SDS011;63666;52.284;20.890;2024-01-16T06:54:21;3.30;;;1.10;;
41141;SDS011;63666;52.284;20.890;2024-01-16T06:56:10;3.10;;;0.90;;
41141;SDS011;63666;52.284;20.890;2024-01-16T06:57:56;3.20;;;1.10;;
41141;SDS011;63666;52.284;20.890;2024-01-16T06:59:45;3.50;;;1.20;;
41141;SDS011;63666;52.284;20.890;2024-01-16T07:01:31;3.20;;;0.90;;
41141;SDS011;63666;52.284;20.890;2024-01-16T07:03:16;3.10;;;1.20;;
41141;SDS011;63666;52.284;20.890;2024-01-16T07:05:01;3.30;;;1.10;;
41141;SDS011;63666;52.284;20.890;2024-01-16T07:06:47;3.10;;;0.90;;
41141;SDS011;63666;52.284;20.890;2024-01-16T07:08:36;2.80;;;1.00;;
41141;SDS011;63666;52.284;20.890;2024-01-16T07:10:20;2.80;;;0.90;;
41141;SDS011;63666;52.284;20.890;2024-01-16T07:12:10;3.20;;;0.90;;
41141;SDS011;63666;52.284;20.890;2024-01-16T07:13:59;2.90;;;0.90;;
41141;SDS011;63666;52.284;20.890;2024-01-16T07:15:46;3.00;;;1.00;;
41141;SDS011;63666;52.284;20.890;2024-01-16T07:17:34;3.40;;;1.10;;
41141;SDS011;63666;52.284;20.890;2024-01-16T07:19:19;3.40;;;1.00;;
41141;SDS011;63666;52.284;20.890;2024-01-16T07:21:05;3.50;;;1.10;;
41141;SDS011;63666;52.284;20.890;2024-01-16T07:23:02;3.10;;;0.90;;
41141;SDS011;63666;52.284;20.890;2024-01-16T07:24:48;3.70;;;1.10;;
41141;SDS011;63666;52.284;20.890;2024-01-16T07:26:33;2.60;;;0.90;;
41141;SDS011;63666;52.284;20.890;2024-01-16T07:28:19;3.50;;;1.30;;
41141;SDS011;63666;52.284;20.890;2024-01-16T07:30:07;3.20;;;1.10;;
41141;SDS011;63666;52.284;20.890;2024-01-16T07:31:53;3.50;;;1.00;;
41141;SDS011;63666;52.284;20.890;2024-01-16T07:33:38;3.30;;;1.10;;
41141;SDS011;63666;52.284;20.890;2024-01-16T07:35:23;4.10;;;1.30;;
41141;SDS011;63666;52.284;20.890;2024-01-16T07:37:08;5.30;;;1.50;;
41141;SDS011;63666;52.284;20.890;2024-01-16T07:38:53;4.10;;;1.20;;
41141;SDS011;63666;52.284;20.890;2024-01-16T07:40:38;5.00;;;1.30;;
41141;SDS011;63666;52.284;20.890;2024-01-16T07:42:25;5.00;;;1.40;;
41141;SDS011;63666;52.284;20.890;2024-01-16T07:44:17;4.30;;;1.30;;
41141;SDS011;63666;52.284;20.890;2024-01-16T07:46:04;4.60;;;1.40;;
41141;SDS011;63666;52.284;20.890;2024-01-16T07:47:51;5.00;;;1.30;;
41141;SDS011;63666;52.284;20.890;2024-01-16T07:49:36;4.50;;;1.50;;
41141;SDS011;63666;52.284;20.890;2024-01-16T07:51:23;3.80;;;1.20;;
41141;SDS011;63666;52.284;20.890;2024-01-16T07:53:08;4.30;;;1.30;;
41141;SDS011;63666;52.284;20.890;2024-01-16T07:54:53;4.40;;;1.20;;
41141;SDS011;63666;52.284;20.890;2024-01-16T07:56:41;3.50;;;1.30;;
41141;SDS011;63666;52.284;20.890;2024-01-16T07:58:28;3.90;;;1.40;;
41141;SDS011;63666;52.284;20.890;2024-01-16T08:00:19;3.70;;;1.30;;
41141;SDS011;63666;52.284;20.890;2024-01-16T08:02:04;5.40;;;1.60;;
41141;SDS011;63666;52.284;20.890;2024-01-16T08:03:51;4.70;;;1.70;;
41141;SDS011;63666;52.284;20.890;2024-01-16T08:05:36;4.20;;;1.30;;
41141;SDS011;63666;52.284;20.890;2024-01-16T08:07:22;4.60;;;1.50;;
41141;SDS011;63666;52.284;20.890;2024-01-16T08:09:07;4.00;;;1.50;;
41141;SDS011;63666;52.284;20.890;2024-01-16T08:10:54;4.60;;;1.50;;
41141;SDS011;63666;52.284;20.890;2024-01-16T08:12:41;4.50;;;1.50;;
41141;SDS011;63666;52.284;20.890;2024-01-16T08:14:26;4.40;;;1.40;;
41141;SDS011;63666;52.284;20.890;2024-01-16T08:16:12;4.40;;;1.50;;
41141;SDS011;63666;52.284;20.890;2024-01-16T08:18:02;3.70;;;1.20;;
41141;SDS011;63666;52.284;20.890;2024-01-16T08:19:48;4.00;;;1.30;;
41141;SDS011;63666;52.284;20.890;2024-01-16T08:21:32;4.10;;;1.30;;
41141;SDS011;63666;52.284;20.890;2024-01-16T08:23:18;4.80;;;1.50;;
41141;SDS011;63666;52.284;20.890;2024-01-16T08:25:05;4.40;;;1.30;;
41141;SDS011;63666;52.284;20.890;2024-01-16T08:26:50;3.80;;;1.20;;
41141;SDS011;63666;52.284;20.890;2024-01-16T08:28:37;3.70;;;1.40;;
41141;SDS011;63666;52.284;20.890;2024-01-16T08:30:22;4.00;;;1.30;;
41141;SDS011;63666;52.284;20.890;2024-01-16T08:32:08;3.90;;;1.40;;
41141;SDS011;63666;52.284;20.890;2024-01-16T08:33:53;4.90;;;1.30;;
41141;SDS011;63666;52.284;20.890;2024-01-16T08:35:42;3.60;;;1.20;;
41141;SDS011;63666;52.284;20.890;2024-01-16T08:37:29;3.80;;;1.40;;
41141;SDS011;63666;52.284;20.890;2024-01-16T08:39:14;4.60;;;1.50;;
41141;SDS011;63666;52.284;20.890;2024-01-16T08:41:00;4.70;;;1.60;;
41141;SDS011;63666;52.284;20.890;2024-01-16T08:42:48;4.20;;;1.40;;
41141;SDS011;63666;52.284;20.890;2024-01-16T08:44:39;4.40;;;1.50;;
41141;SDS011;63666;52.284;20.890;2024-01-16T08:46:25;4.40;;;1.60;;
41141;SDS011;63666;52.284;20.890;2024-01-16T08:48:10;4.40;;;1.60;;
41141;SDS011;63666;52.284;20.890;2024-01-16T08:49:58;5.30;;;1.60;;
41141;SDS011;63666;52.284;20.890;2024-01-16T08:51:47;4.30;;;1.60;;
41141;SDS011;63666;52.284;20.890;2024-01-16T08:53:31;4.70;;;1.60;;
41141;SDS011;63666;52.284;20.890;2024-01-16T08:55:16;5.20;;;1.60;;
41141;SDS011;63666;52.284;20.890;2024-01-16T08:57:02;3.90;;;1.40;;
41141;SDS011;63666;52.284;20.890;2024-01-16T08:58:47;4.90;;;1.80;;
41141;SDS011;63666;52.284;20.890;2024-01-16T09:00:32;4.50;;;1.60;;
41141;SDS011;63666;52.284;20.890;2024-01-16T09:02:19;4.00;;;1.40;;
41141;SDS011;63666;52.284;20.890;2024-01-16T09:04:05;4.20;;;1.50;;
41141;SDS011;63666;52.284;20.890;2024-01-16T09:05:52;4.10;;;1.40;;
41141;SDS011;63666;52.284;20.890;2024-01-16T09:07:39;4.30;;;1.50;;
41141;SDS011;63666;52.284;20.890;2024-01-16T09:09:24;4.90;;;1.40;;
41141;SDS011;63666;52.284;20.890;2024-01-16T09:11:08;4.30;;;1.30;;
41141;SDS011;63666;52.284;20.890;2024-01-16T09:12:54;4.20;;;1.50;;
41141;SDS011;63666;52.284;20.890;2024-01-16T09:14:42;4.30;;;1.60;;
41141;SDS011;63666;52.284;20.890;2024-01-16T09:16:27;4.30;;;1.40;;
41141;SDS011;63666;52.284;20.890;2024-01-16T09:18:14;4.20;;;1.40;;
41141;SDS011;63666;52.284;20.890;2024-01-16T09:20:00;4.30;;;1.40;;
41141;SDS011;63666;52.284;20.890;2024-01-16T09:21:45;4.40;;;1.30;;
41141;SDS011;63666;52.284;20.890;2024-01-16T09:23:30;3.90;;;1.30;;
41141;SDS011;63666;52.284;20.890;2024-01-16T09:25:15;3.40;;;1.10;;
41141;SDS011;63666;52.284;20.890;2024-01-16T09:27:01;3.70;;;1.30;;
41141;SDS011;63666;52.284;20.890;2024-01-16T09:28:48;3.90;;;1.30;;
41141;SDS011;63666;52.284;20.890;2024-01-16T09:30:33;4.70;;;1.40;;
41141;SDS011;63666;52.284;20.890;2024-01-16T09:32:18;5.80;;;1.50;;
41141;SDS011;63666;52.284;20.890;2024-01-16T09:34:04;4.30;;;1.40;;
41141;SDS011;63666;52.284;20.890;2024-01-16T09:35:52;4.90;;;1.30;;
41141;SDS011;63666;52.284;20.890;2024-01-16T09:37:37;4.50;;;1.20;;
41141;SDS011;63666;52.284;20.890;2024-01-16T09:39:21;3.50;;;1.20;;
41141;SDS011;63666;52.284;20.890;2024-01-16T09:41:06;4.60;;;1.40;;
41141;SDS011;63666;52.284;20.890;2024-01-16T09:42:54;4.00;;;1.40;;
41141;SDS011;63666;52.284;20.890;2024-01-16T09:44:38;3.90;;;1.30;;
41141;SDS011;63666;52.284;20.890;2024-01-16T09:46:26;3.90;;;1.40;;
41141;SDS011;63666;52.284;20.890;2024-01-16T09:48:13;4.60;;;1.30;;
41141;SDS011;63666;52.284;20.890;2024-01-16T09:49:58;3.70;;;1.30;;
41141;SDS011;63666;52.284;20.890;2024-01-16T09:51:45;3.20;;;1.10;;
41141;SDS011;63666;52.284;20.890;2024-01-16T09:53:30;4.50;;;1.30;;
41141;SDS011;63666;52.284;20.890;2024-01-16T09:55:17;3.50;;;1.30;;
41141;SDS011;63666;52.284;20.890;2024-01-16T09:57:06;3.60;;;1.10;;
41141;SDS011;63666;52.284;20.890;2024-01-16T09:58:56;3.70;;;1.20;;
41141;SDS011;63666;52.284;20.890;2024-01-16T10:00:45;3.10;;;1.00;;
41141;SDS011;63666;52.284;20.890;2024-01-16T10:02:31;3.60;;;1.30;;
41141;SDS011;63666;52.284;20.890;2024-01-16T10:04:16;3.40;;;1.20;;
41141;SDS011;63666;52.284;20.890;2024-01-16T10:06:03;4.80;;;1.30;;
41141;SDS011;63666;52.284;20.890;2024-01-16T10:07:53;2.70;;;1.00;;
41141;SDS011;63666;52.284;20.890;2024-01-16T10:09:39;4.00;;;1.30;;
41141;SDS011;63666;52.284;20.890;2024-01-16T10:11:23;3.90;;;1.40;;
41141;SDS011;63666;52.284;20.890;2024-01-16T10:13:08;3.70;;;1.20;;
41141;SDS011;63666;52.284;20.890;2024-01-16T10:14:55;4.10;;;1.30;;
41141;SDS011;63666;52.284;20.890;2024-01-16T10:16:58;3.40;;;1.20;;
41141;SDS011;63666;52.284;20.890;2024-01-16T10:18:48;3.00;;;1.10;;
41141;SDS011;63666;52.284;20.890;2024-01-16T10:20:38;3.40;;;1.10;;
41141;SDS011;63666;52.284;20.890;2024-01-16T10:22:24;3.40;;;1.20;;
41141;SDS011;63666;52.284;20.890;2024-01-16T10:24:13;4.00;;;1.10;;
41141;SDS011;63666;52.284;20.890;2024-01-16T10:26:09;3.20;;;1.10;;
41141;SDS011;63666;52.284;20.890;2024-01-16T10:28:07;3.50;;;1.20;;
41141;SDS011;63666;52.284;20.890;2024-01-16T10:29:57;3.70;;;1.20;;
41141;SDS011;63666;52.284;20.890;2024-01-16T10:31:43;3.30;;;1.10;;
41141;SDS011;63666;52.284;20.890;2024-01-16T10:33:28;3.70;;;1.10;;